Time;durP1;ratioP1;P1;durP2;ratioP2;P2;SDS_P1;SDS_P2;PMS_P1;PMS_P2;Temp;Humidity;BMP_temperature;BMP_pressure;BME280_temperature;BME280_humidity;BME280_pressure;Samples;Min_cycle;Max_cycle;Signal;HPM_P1;HPM_P2
2021/04/05 00:03:01;;;;;;;39.25;24.00;;;4.80;99.90;;;;;;12353794;28;20057;-41
2021/04/05 00:09:06;;;;;;;36.72;22.30;;;4.70;99.90;;;;;;12355755;28;20054;-41
2021/04/05 00:15:09;;;;;;;35.28;20.83;;;4.70;99.90;;;;;;12357756;28;20053;-43
2021/04/05 00:21:15;;;;;;;38.35;22.33;;;4.80;99.90;;;;;;12358142;28;20049;-41
2021/04/05 00:27:16;;;;;;;33.00;20.05;;;4.70;99.90;;;;;;12357287;28;20056;-41
2021/04/05 00:33:17;;;;;;;36.70;21.90;;;4.70;99.90;;;;;;12354441;28;20093;-41
2021/04/05 00:39:19;;;;;;;34.13;21.60;;;4.70;99.90;;;;;;12354899;28;20086;-41
2021/04/05 00:45:21;;;;;;;35.97;20.30;;;4.60;99.90;;;;;;12357440;28;20846;-41
2021/04/05 00:51:25;;;;;;;36.83;20.77;;;4.60;99.90;;;;;;12355907;28;20524;-41
2021/04/05 00:57:27;;;;;;;41.17;23.65;;;4.60;99.90;;;;;;12347295;28;20050;-41
2021/04/05 01:03:32;;;;;;;39.88;23.58;;;4.60;99.90;;;;;;12348995;28;20054;-41
2021/04/05 01:09:34;;;;;;;43.22;23.35;;;4.50;99.90;;;;;;12357448;28;20173;-41
2021/04/05 01:15:35;;;;;;;41.88;23.25;;;4.50;99.90;;;;;;12344071;28;20576;-41
2021/04/05 01:21:38;;;;;;;41.72;23.10;;;4.50;99.90;;;;;;12352769;28;20054;-41
2021/04/05 01:27:40;;;;;;;43.03;23.25;;;4.50;99.90;;;;;;12348002;28;20137;-41
2021/04/05 01:33:43;;;;;;;40.40;21.98;;;4.50;99.90;;;;;;12354851;28;20601;-41
2021/04/05 01:39:44;;;;;;;43.25;25.38;;;4.60;99.90;;;;;;12354987;28;20243;-41
2021/04/05 01:45:46;;;;;;;39.45;23.67;;;4.60;99.90;;;;;;12351924;28;20725;-41
2021/04/05 01:51:48;;;;;;;41.33;21.30;;;4.60;99.90;;;;;;12346338;28;20842;-41
2021/04/05 01:57:50;;;;;;;45.05;23.80;;;4.70;99.90;;;;;;12352472;28;20050;-41
2021/04/05 02:03:52;;;;;;;41.20;24.55;;;4.70;99.90;;;;;;12350227;28;20062;-41
2021/04/05 02:09:54;;;;;;;40.35;22.77;;;4.70;99.90;;;;;;12339240;28;20066;-41
2021/04/05 02:15:56;;;;;;;41.65;23.85;;;4.70;99.90;;;;;;12353980;28;20054;-42
2021/04/05 02:21:57;;;;;;;45.40;23.33;;;4.70;99.90;;;;;;12350740;28;20081;-41
2021/04/05 02:28:01;;;;;;;45.58;23.70;;;4.70;99.90;;;;;;12350338;28;20081;-41
2021/04/05 02:34:10;;;;;;;40.60;22.40;;;4.90;99.90;;;;;;12353182;28;20482;-41
2021/04/05 02:40:13;;;;;;;37.08;20.75;;;5.00;99.90;;;;;;12347380;28;20047;-41
2021/04/05 02:46:18;;;;;;;40.55;22.80;;;5.00;99.90;;;;;;12348714;28;20145;-44
2021/04/05 02:52:19;;;;;;;38.10;21.63;;;5.00;99.90;;;;;;12345654;28;20054;-41
2021/04/05 02:58:21;;;;;;;42.65;22.55;;;5.10;99.90;;;;;;12345613;28;20041;-41
2021/04/05 03:04:23;;;;;;;39.25;20.73;;;5.10;99.90;;;;;;12347365;28;20479;-41
2021/04/05 03:10:28;;;;;;;35.20;19.38;;;5.10;99.90;;;;;;12346295;28;24425;-42
2021/04/05 03:16:31;;;;;;;38.78;20.02;;;5.20;99.90;;;;;;12350416;28;20054;-41
2021/04/05 03:22:33;;;;;;;36.20;19.38;;;5.20;99.90;;;;;;12346209;28;20054;-42
2021/04/05 03:28:34;;;;;;;32.58;19.20;;;5.30;99.90;;;;;;12342402;28;20158;-41
2021/04/05 03:34:38;;;;;;;34.25;17.73;;;5.30;99.90;;;;;;12353286;28;20081;-42
2021/04/05 03:40:42;;;;;;;36.05;19.63;;;5.30;99.90;;;;;;12354330;28;20463;-41
2021/04/05 03:46:45;;;;;;;37.70;19.58;;;5.50;99.90;;;;;;12349366;28;20119;-41
2021/04/05 03:53:07;;;;;;;38.40;19.20;;;5.50;99.90;;;;;;12354718;28;20065;-41
2021/04/05 03:59:24;;;;;;;40.25;19.75;;;5.50;99.90;;;;;;12353514;28;20076;-41
2021/04/05 04:05:50;;;;;;;36.78;19.83;;;5.60;99.90;;;;;;12360739;28;20042;-41
2021/04/05 04:11:56;;;;;;;38.40;17.98;;;5.60;99.90;;;;;;12363793;28;20394;-41
2021/04/05 04:17:59;;;;;;;;;;;5.70;99.90;;;;;;12361643;28;20126;-41
2021/04/05 04:24:01;;;;;;;38.35;18.00;;;5.70;99.90;;;;;;12356285;28;19961;-41
2021/04/05 04:30:05;;;;;;;40.88;19.73;;;5.70;99.90;;;;;;12354476;28;20104;-41
2021/04/05 04:36:07;;;;;;;34.63;16.83;;;5.70;99.90;;;;;;12355561;28;20057;-41
2021/04/05 04:42:10;;;;;;;30.73;16.50;;;5.70;99.90;;;;;;12351128;28;20494;-41
2021/04/05 04:48:12;;;;;;;37.55;16.30;;;5.80;99.90;;;;;;12349605;28;20050;-41
2021/04/05 04:54:13;;;;;;;34.28;15.82;;;5.70;99.90;;;;;;12350618;28;20047;-41
2021/04/05 05:00:16;;;;;;;33.83;17.63;;;5.80;99.90;;;;;;12350786;28;21146;-41
2021/04/05 05:06:20;;;;;;;36.92;17.25;;;5.80;99.90;;;;;;12352701;28;20058;-41
2021/04/05 05:12:21;;;;;;;32.50;18.13;;;5.80;99.90;;;;;;12355492;28;20054;-41
2021/04/05 05:18:25;;;;;;;40.15;20.25;;;5.80;99.90;;;;;;12351368;28;20057;-41
2021/04/05 05:24:30;;;;;;;36.45;19.92;;;5.70;99.90;;;;;;12349024;28;20108;-41
2021/04/05 05:30:32;;;;;;;36.90;17.80;;;5.70;99.90;;;;;;12350261;28;20061;-41
2021/04/05 05:36:35;;;;;;;38.10;19.40;;;5.60;99.90;;;;;;12352035;28;20050;-41
2021/04/05 05:43:10;;;;;;;34.95;17.17;;;5.50;99.90;;;;;;12345834;28;20104;-41
2021/04/05 05:49:34;;;;;;;;;;;5.50;99.90;;;;;;12356076;28;20050;-42
2021/04/05 05:56:05;;;;;;;39.35;18.50;;;5.40;99.90;;;;;;12360084;28;19983;-41
2021/04/05 06:02:38;;;;;;;36.55;19.75;;;5.40;99.90;;;;;;12342040;28;20064;-42
2021/04/05 06:08:58;;;;;;;39.72;20.42;;;5.50;99.90;;;;;;12343597;28;20046;-41
2021/04/05 06:15:12;;;;;;;41.28;20.85;;;5.40;99.90;;;;;;12343812;28;20763;-41
2021/04/05 06:21:45;;;;;;;34.67;19.43;;;5.40;99.90;;;;;;12355849;28;20470;-42
2021/04/05 06:28:05;;;;;;;33.33;19.67;;;5.40;99.90;;;;;;12352411;28;20045;-41
2021/04/05 06:34:29;;;;;;;33.70;17.75;;;5.50;99.90;;;;;;12360468;28;20053;-41
2021/04/05 06:40:34;;;;;;;39.85;18.52;;;5.50;99.90;;;;;;12357593;28;20053;-41
2021/04/05 06:46:55;;;;;;;36.92;20.90;;;5.50;99.90;;;;;;12350212;28;20058;-42
2021/04/05 06:53:22;;;;;;;29.45;16.98;;;5.60;99.90;;;;;;12352579;28;20152;-43
2021/04/05 06:59:35;;;;;;;30.40;16.65;;;5.70;99.90;;;;;;12353976;28;20476;-42
2021/04/05 07:05:55;;;;;;;14.63;9.80;;;5.80;99.90;;;;;;12356211;28;20511;-43
2021/04/05 07:12:05;;;;;;;5.85;1.92;;;5.10;99.90;;;;;;12359454;28;20137;-44
2021/04/05 07:18:22;;;;;;;2.97;1.35;;;4.50;99.90;;;;;;12365355;28;20164;-43
2021/04/05 07:24:35;;;;;;;3.90;1.20;;;4.40;99.90;;;;;;12362506;28;20545;-43
2021/04/05 07:30:39;;;;;;;0.88;0.55;;;4.20;99.90;;;;;;12368837;28;20073;-43
2021/04/05 07:36:52;;;;;;;1.30;0.70;;;3.90;99.90;;;;;;12372128;28;20104;-43
2021/04/05 07:43:12;;;;;;;1.85;0.22;;;3.90;99.90;;;;;;12368594;28;20054;-42
2021/04/05 07:49:27;;;;;;;2.30;0.50;;;3.70;99.90;;;;;;12375983;28;20058;-44
2021/04/05 07:55:29;;;;;;;0.93;0.82;;;3.50;99.90;;;;;;12369943;28;20046;-42
2021/04/05 08:01:59;;;;;;;2.08;0.90;;;3.50;99.90;;;;;;12372980;28;20192;-43
2021/04/05 08:08:31;;;;;;;2.95;1.25;;;3.50;99.90;;;;;;12370668;28;20065;-42
2021/04/05 08:14:45;;;;;;;1.48;0.50;;;3.60;99.90;;;;;;12365169;28;20052;-44
2021/04/05 08:21:04;;;;;;;1.38;0.40;;;3.50;99.90;;;;;;12368135;28;20430;-43
2021/04/05 08:27:24;;;;;;;2.35;0.70;;;3.50;99.90;;;;;;12368488;28;20979;-43
2021/04/05 08:33:33;;;;;;;0.73;0.40;;;3.70;99.90;;;;;;12365019;28;20459;-42
2021/04/05 08:39:59;;;;;;;2.10;0.52;;;3.90;99.90;;;;;;12362653;28;20061;-42
2021/04/05 08:46:11;;;;;;;2.70;0.40;;;4.00;99.90;;;;;;12366857;28;20085;-42
2021/04/05 08:52:17;;;;;;;3.33;0.50;;;3.60;99.90;;;;;;12369156;28;20719;-42
2021/04/05 08:58:35;;;;;;;5.63;0.90;;;3.10;99.90;;;;;;12366669;28;20050;-43
2021/04/05 09:04:39;;;;;;;7.40;0.82;;;2.90;99.90;;;;;;12364510;28;20394;-44
2021/04/05 09:11:02;;;;;;;6.07;1.17;;;2.50;99.90;;;;;;12367803;28;20064;-42
2021/04/05 09:17:35;;;;;;;7.68;1.33;;;2.80;99.90;;;;;;12369504;28;20526;-42
2021/04/05 09:23:45;;;;;;;7.88;1.92;;;3.30;99.90;;;;;;12365452;28;20046;-43
2021/04/05 09:30:27;;;;;;;5.43;0.88;;;3.60;99.90;;;;;;12363222;28;20058;-45
2021/04/05 09:36:42;;;;;;;7.63;1.92;;;3.50;99.90;;;;;;12364505;28;20054;-42
2021/04/05 09:42:43;;;;;;;;;;;3.10;99.90;;;;;;12361828;28;20053;-42
2021/04/05 09:48:53;;;;;;;7.47;1.42;;;2.90;99.90;;;;;;12363711;28;19975;-42
2021/04/05 09:55:25;;;;;;;7.95;1.38;;;2.70;99.90;;;;;;12365487;28;20042;-42
2021/04/05 10:01:30;;;;;;;6.38;1.13;;;2.60;99.90;;;;;;12357241;28;20133;-43
2021/04/05 10:07:32;;;;;;;8.30;0.75;;;2.80;99.90;;;;;;12365487;28;20742;-42
2021/04/05 10:13:41;;;;;;;4.38;0.90;;;3.20;99.90;;;;;;12363376;28;20038;-42
2021/04/05 10:19:53;;;;;;;1.25;0.47;;;3.10;99.90;;;;;;12367376;28;20081;-42
2021/04/05 10:25:57;;;;;;;1.85;0.40;;;1.80;99.90;;;;;;12362883;28;20046;-42
2021/04/05 10:32:02;;;;;;;2.47;0.70;;;1.90;99.90;;;;;;12362787;28;20054;-43
2021/04/05 10:38:04;;;;;;;1.60;0.60;;;2.00;99.90;;;;;;12358585;28;20073;-42
2021/04/05 10:44:11;;;;;;;1.63;0.60;;;2.20;99.90;;;;;;12363581;28;20054;-43
2021/04/05 10:50:13;;;;;;;2.30;0.60;;;2.50;99.90;;;;;;12354861;28;20103;-42
2021/04/05 10:56:16;;;;;;;3.42;0.65;;;2.70;99.90;;;;;;12363080;28;20046;-43
2021/04/05 11:02:40;;;;;;;5.15;0.80;;;3.00;99.90;;;;;;12365488;28;20181;-43
2021/04/05 11:08:43;;;;;;;5.97;1.77;;;3.30;99.90;;;;;;12365788;28;20133;-43
2021/04/05 11:14:48;;;;;;;4.97;0.90;;;3.50;99.90;;;;;;12374376;28;20039;-42
2021/04/05 11:20:57;;;;;;;8.07;1.35;;;3.60;99.90;;;;;;12369346;28;20379;-43
2021/04/05 11:27:03;;;;;;;11.18;2.28;;;3.40;99.90;;;;;;12372949;28;20050;-42
2021/04/05 11:33:10;;;;;;;7.82;1.67;;;3.60;99.90;;;;;;12369056;28;20050;-42
2021/04/05 11:39:15;;;;;;;8.73;1.95;;;3.70;99.90;;;;;;12372232;28;20538;-43
2021/04/05 11:45:34;;;;;;;4.47;1.13;;;3.40;99.90;;;;;;12362732;28;20046;-43
2021/04/05 11:51:47;;;;;;;6.55;1.60;;;3.80;99.90;;;;;;12374616;28;20045;-44
2021/04/05 11:58:02;;;;;;;6.90;1.10;;;4.00;99.90;;;;;;12372159;28;20130;-42
2021/04/05 12:04:13;;;;;;;9.00;1.30;;;3.70;99.90;;;;;;12367831;28;20164;-42
2021/04/05 12:10:23;;;;;;;6.00;1.80;;;3.90;99.90;;;;;;12367363;28;20150;-43
2021/04/05 12:16:28;;;;;;;8.93;1.10;;;4.40;99.90;;;;;;12368613;28;20086;-44
2021/04/05 12:22:30;;;;;;;;;;;4.50;99.90;;;;;;12364755;28;20089;-42
2021/04/05 12:28:40;;;;;;;6.95;1.30;;;4.50;99.90;;;;;;12368082;28;19971;-42
2021/04/05 12:34:45;;;;;;;9.77;1.65;;;5.10;99.90;;;;;;12370400;28;20042;-44
2021/04/05 12:40:51;;;;;;;5.68;1.15;;;4.40;99.90;;;;;;12365503;28;20057;-42
2021/04/05 12:46:54;;;;;;;8.93;1.23;;;3.60;99.90;;;;;;12369410;28;20051;-42
2021/04/05 12:53:05;;;;;;;6.38;1.67;;;2.90;99.90;;;;;;12362056;28;20072;-44
2021/04/05 12:59:06;;;;;;;5.25;1.10;;;2.70;99.90;;;;;;12365338;28;20097;-42
2021/04/05 13:05:32;;;;;;;6.18;0.65;;;3.00;99.90;;;;;;12369685;28;20077;-42
2021/04/05 13:11:42;;;;;;;4.45;0.75;;;3.70;99.90;;;;;;12367755;28;20157;-42
2021/04/05 13:17:48;;;;;;;6.18;0.90;;;4.60;99.90;;;;;;12368125;28;20054;-42
2021/04/05 13:23:57;;;;;;;4.32;0.68;;;4.40;99.90;;;;;;12367695;28;20589;-42
2021/04/05 13:30:01;;;;;;;4.00;0.50;;;3.90;99.90;;;;;;12367272;28;20061;-44
2021/04/05 13:36:14;;;;;;;5.10;0.75;;;3.70;99.90;;;;;;12362195;28;20085;-42
2021/04/05 13:42:20;;;;;;;2.50;0.50;;;4.00;99.90;;;;;;12351055;28;20137;-43
2021/04/05 13:48:27;;;;;;;0.85;0.45;;;4.00;99.90;;;;;;12362595;28;20065;-42
2021/04/05 13:54:30;;;;;;;3.17;0.52;;;4.00;99.90;;;;;;12362686;28;20145;-42
2021/04/05 14:00:33;;;;;;;4.10;0.55;;;4.20;99.90;;;;;;12359086;28;20475;-42
2021/04/05 14:06:43;;;;;;;2.90;0.77;;;4.10;99.90;;;;;;12363205;28;20536;-43
2021/04/05 14:12:49;;;;;;;2.58;0.40;;;4.60;99.90;;;;;;12359299;28;20054;-42
2021/04/05 14:19:11;;;;;;;2.95;0.90;;;5.00;99.90;;;;;;12366877;28;20518;-43
2021/04/05 14:25:56;;;;;;;2.97;0.60;;;5.40;99.90;;;;;;12359032;28;20134;-42
2021/04/05 14:32:02;;;;;;;5.03;0.98;;;5.10;99.90;;;;;;12365946;28;20046;-43
2021/04/05 14:38:11;;;;;;;2.42;0.50;;;5.10;99.90;;;;;;12364088;28;20525;-43
2021/04/05 14:44:13;;;;;;;5.10;0.70;;;4.80;99.90;;;;;;12364458;28;20168;-42
2021/04/05 14:50:15;;;;;;;4.35;0.70;;;4.50;99.90;;;;;;12359567;28;20165;-43
2021/04/05 14:56:18;;;;;;;5.78;0.70;;;4.20;99.90;;;;;;12360543;28;20462;-42
2021/04/05 15:02:21;;;;;;;5.78;0.70;;;3.70;99.90;;;;;;12354455;28;20068;-42
2021/04/05 15:08:27;;;;;;;3.10;0.70;;;3.90;99.90;;;;;;12364920;28;20573;-43
2021/04/05 15:14:45;;;;;;;2.55;0.65;;;4.10;99.90;;;;;;12354691;28;20147;-42
2021/04/05 15:20:48;;;;;;;3.30;0.40;;;4.40;99.90;;;;;;12351753;28;20047;-42
2021/04/05 15:26:52;;;;;;;3.78;0.50;;;4.10;99.90;;;;;;12364712;28;20177;-45
2021/04/05 15:32:55;;;;;;;5.00;0.57;;;4.20;99.90;;;;;;12359555;28;20133;-43
2021/04/05 15:38:57;;;;;;;3.35;0.57;;;4.40;99.90;;;;;;12354988;28;20059;-43
2021/04/05 15:45:27;;;;;;;3.50;0.55;;;4.60;99.90;;;;;;12354578;28;20050;-44
2021/04/05 15:51:51;;;;;;;6.88;1.00;;;4.50;99.90;;;;;;12370716;28;20136;-42
2021/04/05 15:57:56;;;;;;;4.07;0.80;;;4.50;99.90;;;;;;12372279;28;20069;-42
2021/04/05 16:04:35;;;;;;;3.17;0.70;;;4.70;99.90;;;;;;12364300;28;20077;-42
2021/04/05 16:11:19;;;;;;;2.58;0.45;;;4.40;99.90;;;;;;12376718;28;20051;-43
2021/04/05 16:17:32;;;;;;;3.35;0.52;;;4.20;99.90;;;;;;12367622;28;20069;-42
2021/04/05 16:23:39;;;;;;;4.03;1.08;;;3.70;99.90;;;;;;12366197;28;20086;-43
2021/04/05 16:29:44;;;;;;;2.85;0.80;;;3.90;99.90;;;;;;12367192;28;20137;-43
2021/04/05 16:35:51;;;;;;;2.00;0.75;;;4.30;99.90;;;;;;12367983;28;20514;-42
2021/04/05 16:41:58;;;;;;;2.45;0.70;;;4.60;99.90;;;;;;12360223;28;20760;-44
2021/04/05 16:48:04;;;;;;;4.47;0.60;;;4.70;99.90;;;;;;12358395;28;20047;-43
2021/04/05 16:54:08;;;;;;;2.90;0.50;;;4.90;99.90;;;;;;12361600;28;20152;-42
2021/04/05 17:00:13;;;;;;;4.33;1.87;;;4.20;99.90;;;;;;12357047;28;20249;-43
2021/04/05 17:06:23;;;;;;;6.15;0.75;;;3.80;99.90;;;;;;12360973;28;20296;-43
2021/04/05 17:12:35;;;;;;;2.78;0.73;;;4.20;99.90;;;;;;12352209;28;20108;-42
2021/04/05 17:18:46;;;;;;;5.07;0.70;;;3.80;99.90;;;;;;12368461;28;20534;-42
2021/04/05 17:24:48;;;;;;;3.22;0.52;;;3.10;99.90;;;;;;12374460;28;20415;-43
2021/04/05 17:30:56;;;;;;;2.80;0.70;;;2.80;99.90;;;;;;12368019;28;20093;-42
2021/04/05 17:37:05;;;;;;;7.32;1.30;;;2.70;99.90;;;;;;12362137;28;20078;-42
2021/04/05 17:43:13;;;;;;;4.68;1.00;;;2.60;99.90;;;;;;12364723;28;20085;-42
2021/04/05 17:49:37;;;;;;;4.05;1.00;;;2.50;99.90;;;;;;12370494;28;20102;-42
2021/04/05 17:55:50;;;;;;;4.10;1.15;;;2.30;99.90;;;;;;12352518;28;20495;-42
2021/04/05 18:02:01;;;;;;;5.25;1.05;;;2.20;99.90;;;;;;12360353;28;20064;-45
2021/04/05 18:08:14;;;;;;;4.30;1.02;;;2.10;99.90;;;;;;12358116;28;20137;-42
2021/04/05 18:14:23;;;;;;;3.25;0.63;;;1.90;99.90;;;;;;12350444;28;20046;-42
2021/04/05 18:20:59;;;;;;;5.93;1.20;;;1.60;99.90;;;;;;12349554;28;20132;-42
2021/04/05 18:27:05;;;;;;;4.43;1.60;;;1.50;99.90;;;;;;12352528;28;20059;-42
2021/04/05 18:33:28;;;;;;;3.70;0.63;;;1.60;99.90;;;;;;12358117;28;20077;-43
2021/04/05 18:39:33;;;;;;;4.32;0.80;;;1.60;99.90;;;;;;12350412;28;20085;-42
2021/04/05 18:45:55;;;;;;;5.18;1.10;;;1.50;99.90;;;;;;12354066;28;20406;-42
2021/04/05 18:52:08;;;;;;;4.93;1.10;;;1.50;99.90;;;;;;12350915;28;20070;-42
2021/04/05 18:58:13;;;;;;;6.57;1.02;;;1.30;99.90;;;;;;12353160;28;20725;-42
2021/04/05 19:04:18;;;;;;;9.10;1.00;;;1.20;99.90;;;;;;12364017;28;20129;-42
2021/04/05 19:10:28;;;;;;;3.20;1.02;;;1.10;99.90;;;;;;12350446;28;20156;-42
2021/04/05 19:16:41;;;;;;;3.85;1.10;;;1.00;99.90;;;;;;12355145;28;20064;-43
2021/04/05 19:22:57;;;;;;;5.85;0.88;;;0.60;99.90;;;;;;12357599;28;20054;-42
2021/04/05 19:28:58;;;;;;;4.93;1.00;;;0.50;99.90;;;;;;12384143;28;21400;-44
2021/04/05 19:35:08;;;;;;;3.13;1.00;;;0.30;99.90;;;;;;12367990;28;20054;-42
2021/04/05 19:41:40;;;;;;;4.07;0.80;;;0.30;99.90;;;;;;12364720;28;20129;-43
2021/04/05 19:48:00;;;;;;;3.20;0.82;;;0.30;99.90;;;;;;12361565;28;20379;-44
2021/04/05 19:54:27;;;;;;;7.20;1.30;;;0.20;99.90;;;;;;12373623;28;20089;-42
2021/04/05 20:00:36;;;;;;;6.20;1.00;;;0.30;99.90;;;;;;12366694;28;20605;-42
2021/04/05 20:06:55;;;;;;;3.05;1.00;;;0.40;99.90;;;;;;12372537;28;20145;-42
2021/04/05 20:13:12;;;;;;;5.68;1.50;;;0.70;99.90;;;;;;12367275;28;20129;-42
2021/04/05 20:19:21;;;;;;;4.25;1.30;;;0.90;99.90;;;;;;12372771;28;20140;-42
2021/04/05 20:25:34;;;;;;;6.53;1.23;;;0.90;99.90;;;;;;12373251;28;20054;-43
2021/04/05 20:31:42;;;;;;;5.55;1.00;;;1.10;99.90;;;;;;12368305;28;20137;-43
2021/04/05 20:37:52;;;;;;;4.78;1.25;;;1.00;99.90;;;;;;12372015;28;20129;-42
2021/04/05 20:43:54;;;;;;;6.47;1.33;;;0.80;99.90;;;;;;12366720;28;20065;-42
2021/04/05 20:50:17;;;;;;;7.30;1.92;;;0.80;99.90;;;;;;12360944;28;21924;-42
2021/04/05 20:56:23;;;;;;;5.40;1.08;;;0.80;99.90;;;;;;12365886;28;20451;-43
2021/04/05 21:02:27;;;;;;;5.85;1.45;;;0.70;99.90;;;;;;12359494;28;20056;-43
2021/04/05 21:08:30;;;;;;;4.60;1.08;;;0.60;99.90;;;;;;12364087;28;20053;-43
2021/04/05 21:14:48;;;;;;;4.32;1.33;;;0.50;99.90;;;;;;12364293;28;20317;-42
2021/04/05 21:21:04;;;;;;;3.67;1.27;;;0.30;99.90;;;;;;12367480;28;21002;-42
2021/04/05 21:27:16;;;;;;;4.22;1.20;;;0.30;99.90;;;;;;12373002;28;20496;-44
2021/04/05 21:33:28;;;;;;;7.68;1.50;;;0.40;99.90;;;;;;12362591;28;20133;-42
2021/04/05 21:39:40;;;;;;;2.85;1.13;;;0.40;99.90;;;;;;12368108;28;20041;-42
2021/04/05 21:46:17;;;;;;;2.92;1.20;;;0.40;99.90;;;;;;12361471;28;20133;-42
2021/04/05 21:52:33;;;;;;;4.10;1.33;;;0.30;99.90;;;;;;12366075;28;20146;-43
2021/04/05 21:58:42;;;;;;;3.80;1.27;;;0.30;99.90;;;;;;12364094;28;20065;-43
2021/04/05 22:04:55;;;;;;;7.15;1.30;;;0.30;99.90;;;;;;12366943;28;20139;-44
2021/04/05 22:11:05;;;;;;;5.28;1.20;;;0.30;99.90;;;;;;12356739;28;20157;-42
2021/04/05 22:17:06;;;;;;;5.43;1.35;;;0.30;99.90;;;;;;12367058;28;20050;-42
2021/04/05 22:23:10;;;;;;;4.47;1.40;;;0.30;99.90;;;;;;12366251;28;20065;-43
2021/04/05 22:29:13;;;;;;;3.33;1.00;;;0.40;99.90;;;;;;12362759;28;21012;-44
2021/04/05 22:35:25;;;;;;;4.40;1.40;;;0.40;99.90;;;;;;12357936;28;20463;-43
2021/04/05 22:41:36;;;;;;;1.95;1.00;;;0.40;99.90;;;;;;12356840;28;20402;-42
2021/04/05 22:47:40;;;;;;;3.78;1.10;;;0.50;99.90;;;;;;12352487;28;20141;-44
2021/04/05 22:53:57;;;;;;;3.22;1.23;;;0.50;99.90;;;;;;12364783;28;20086;-42
2021/04/05 23:00:01;;;;;;;3.75;1.40;;;0.50;99.90;;;;;;12355377;28;20050;-42
2021/04/05 23:06:21;;;;;;;2.38;1.13;;;0.70;99.90;;;;;;12357464;28;20316;-43
2021/04/05 23:12:26;;;;;;;5.88;0.93;;;0.60;99.90;;;;;;12358414;28;20129;-43
2021/04/05 23:18:30;;;;;;;1.83;1.05;;;0.90;99.90;;;;;;12363569;28;20052;-42
2021/04/05 23:24:33;;;;;;;1.75;1.00;;;1.00;99.90;;;;;;12359567;28;20056;-43
2021/04/05 23:30:41;;;;;;;2.65;1.05;;;0.80;99.90;;;;;;12358616;28;20055;-42
2021/04/05 23:36:49;;;;;;;2.47;1.15;;;0.90;99.90;;;;;;12359814;28;20043;-43
2021/04/05 23:42:51;;;;;;;2.53;1.45;;;1.00;99.90;;;;;;12361620;28;20591;-44
2021/04/05 23:48:55;;;;;;;2.05;1.13;;;1.10;99.90;;;;;;12359936;28;20054;-43
2021/04/05 23:54:57;;;;;;;3.95;1.38;;;1.10;99.90;;;;;;12356684;28;20156;-42
